Time;durP1;ratioP1;P1;durP2;ratioP2;P2;SDS_P1;SDS_P2;PMS_P1;PMS_P2;Temp;Humidity;BMP_temperature;BMP_pressure;BME280_temperature;BME280_humidity;BME280_pressure;Samples;Min_cycle;Max_cycle;Signal;HPM_P1;HPM_P2
2022/04/22 00:00:08;;;;;;;1031.65;964.35;;;;;;;11.56;58.98;100722.22;676657;29;44165;-65
2022/04/22 00:00:30;;;;;;;1028.72;961.60;;;;;;;11.56;58.78;100724.91;677109;29;46389;-65
2022/04/22 00:00:52;;;;;;;1018.58;951.78;;;;;;;11.57;58.64;100721.16;677730;29;22191;-65
2022/04/22 00:01:13;;;;;;;1028.60;961.33;;;;;;;11.56;58.77;100724.91;676493;29;43601;-65
2022/04/22 00:01:35;;;;;;;1020.15;953.22;;;;;;;11.55;58.94;100726.75;676444;29;43211;-65
2022/04/22 00:01:56;;;;;;;1027.65;960.53;;;;;;;11.55;58.93;100729.47;675997;29;67296;-65
2022/04/22 00:02:17;;;;;;;1031.95;964.55;;;;;;;11.54;58.70;100725.09;677511;29;22402;-65
2022/04/22 00:02:39;;;;;;;1023.90;956.75;;;;;;;11.51;58.83;100720.91;675354;29;22386;-65
2022/04/22 00:03:01;;;;;;;1026.60;959.30;;;;;;;11.53;58.84;100726.13;673949;29;44394;-65
2022/04/22 00:03:22;;;;;;;1027.03;959.80;;;;;;;11.53;58.90;100724.25;675507;29;22363;-65
2022/04/22 00:03:44;;;;;;;1029.65;962.45;;;;;;;11.53;58.69;100732.34;675187;29;23505;-65
2022/04/22 00:04:05;;;;;;;1027.90;960.72;;;;;;;11.53;58.76;100728.81;674001;29;46308;-65
2022/04/22 00:04:27;;;;;;;1026.47;959.38;;;;;;;11.50;58.84;100724.66;675710;29;21279;-65
2022/04/22 00:04:48;;;;;;;1032.45;965.15;;;;;;;11.47;58.69;100719.59;676331;29;69109;-65
2022/04/22 00:05:10;;;;;;;1030.30;962.95;;;;;;;11.51;58.84;100722.78;677470;29;22326;-65
2022/04/22 00:05:31;;;;;;;1027.55;960.35;;;;;;;11.47;58.98;100719.59;677627;29;22395;-65
2022/04/22 00:05:53;;;;;;;1032.20;964.78;;;;;;;11.49;58.69;100725.66;676830;29;45226;-65
2022/04/22 00:06:14;;;;;;;1031.70;964.28;;;;;;;11.50;58.72;100721.94;676612;29;23274;-65
2022/04/22 00:06:36;;;;;;;1028.43;961.13;;;;;;;11.50;58.96;100723.78;677882;29;22394;-65
2022/04/22 00:06:57;;;;;;;1027.53;960.47;;;;;;;11.50;58.78;100723.78;676868;29;44374;-65
2022/04/22 00:07:18;;;;;;;1028.13;960.95;;;;;;;11.48;58.67;100720.44;677657;29;23432;-65
2022/04/22 00:07:39;;;;;;;1026.00;958.95;;;;;;;11.49;59.07;100716.72;678065;29;22486;-65
2022/04/22 00:08:01;;;;;;;1028.03;960.97;;;;;;;11.49;58.87;100725.66;677697;29;21529;-65
2022/04/22 00:08:22;;;;;;;1023.25;956.47;;;;;;;11.48;58.74;100723.13;676077;29;69392;-65
2022/04/22 00:08:46;;;;;;;1026.55;959.55;;;;;;;11.48;58.56;100721.25;677958;29;23468;-65
2022/04/22 00:09:08;;;;;;;1028.05;960.95;;;;;;;11.50;58.82;100718.38;676160;29;69056;-65
2022/04/22 00:09:31;;;;;;;1029.57;962.35;;;;;;;11.49;58.80;100716.72;676577;29;44123;-65
2022/04/22 00:09:52;;;;;;;1033.00;965.50;;;;;;;11.45;58.81;100718.91;675897;29;70318;-65
2022/04/22 00:10:13;;;;;;;1029.28;962.08;;;;;;;11.48;58.82;100720.44;677746;29;23418;-65
2022/04/22 00:10:35;;;;;;;1033.03;965.53;;;;;;;11.47;58.67;100724.16;676726;29;46350;-65
2022/04/22 00:11:36;;;;;;;1032.03;964.50;;;;;;;11.44;58.60;100717.25;672493;29;156131;-65
2022/04/22 00:11:57;;;;;;;1027.63;960.53;;;;;;;11.44;58.40;100713.69;677663;29;22402;-65
2022/04/22 00:12:18;;;;;;;1027.82;960.63;;;;;;;11.42;58.58;100719.28;677768;29;22417;-65
2022/04/22 00:12:40;;;;;;;1029.85;962.58;;;;;;;11.43;58.43;100722.84;677839;29;24350;-65
2022/04/22 00:13:01;;;;;;;1025.03;957.92;;;;;;;11.43;58.46;100722.84;676819;29;45213;-65
2022/04/22 00:13:22;;;;;;;1030.13;962.83;;;;;;;11.42;58.59;100727.41;677561;29;22411;-65
2022/04/22 00:13:44;;;;;;;1034.45;967.05;;;;;;;11.41;58.83;100719.47;677922;29;23542;-65
2022/04/22 00:14:05;;;;;;;1031.43;964.15;;;;;;;11.39;58.88;100721.53;677257;29;45262;-65
2022/04/22 00:14:26;;;;;;;1033.85;966.42;;;;;;;11.40;58.87;100723.22;677204;29;22421;-65
2022/04/22 00:14:48;;;;;;;1024.93;957.80;;;;;;;11.40;58.92;100717.81;678082;29;22372;-65
2022/04/22 00:15:11;;;;;;;1020.75;953.90;;;;;;;11.39;58.93;100721.53;677475;29;21121;-65
2022/04/22 00:15:32;;;;;;;1020.40;953.45;;;;;;;11.38;58.52;100720.69;675375;29;92213;-65
2022/04/22 00:15:53;;;;;;;1026.97;959.80;;;;;;;11.39;58.77;100721.53;677595;29;22416;-65
2022/04/22 00:16:14;;;;;;;1018.33;951.63;;;;;;;11.36;58.56;100717.31;676067;29;22366;-65
2022/04/22 00:16:36;;;;;;;1016.65;949.95;;;;;;;11.36;58.48;100720.00;677305;29;21441;-65
2022/04/22 00:16:57;;;;;;;1012.03;945.70;;;;;;;11.35;58.79;100721.88;676400;29;46283;-65
2022/04/22 00:17:18;;;;;;;1007.85;941.75;;;;;;;11.35;58.59;100723.75;674233;29;22239;-65
2022/04/22 00:17:40;;;;;;;1017.40;950.80;;;;;;;11.33;59.01;100714.97;674817;29;21553;-65
2022/04/22 00:18:02;;;;;;;1021.85;955.15;;;;;;;11.35;58.85;100726.47;674001;29;46344;-65
2022/04/22 00:18:24;;;;;;;1012.90;946.58;;;;;;;11.34;58.54;100722.06;673966;29;43723;-65
2022/04/22 00:18:45;;;;;;;1017.72;951.10;;;;;;;11.34;58.71;100720.19;674678;29;46919;-65
2022/04/22 00:19:06;;;;;;;1021.10;954.33;;;;;;;11.34;58.57;100720.19;675357;29;21526;-65
2022/04/22 00:19:30;;;;;;;1025.47;958.55;;;;;;;11.32;58.81;100719.56;677607;29;23756;-65
2022/04/22 00:19:51;;;;;;;1021.22;954.53;;;;;;;11.32;58.40;100721.41;675456;29;90201;-65
2022/04/22 00:20:12;;;;;;;1017.78;951.20;;;;;;;11.32;58.78;100716.00;677446;29;23394;-65
2022/04/22 00:20:34;;;;;;;1016.03;949.53;;;;;;;11.31;58.61;100725.97;677203;29;46284;-65
2022/04/22 00:20:55;;;;;;;1020.40;953.78;;;;;;;11.28;58.79;100712.81;676996;29;46245;-65
2022/04/22 00:21:17;;;;;;;1018.42;951.63;;;;;;;11.29;58.54;100732.59;677134;29;23458;-65
2022/04/22 00:21:41;;;;;;;1019.88;953.10;;;;;;;11.28;58.41;100722.78;678031;29;22294;-65
2022/04/22 00:22:04;;;;;;;1013.05;946.65;;;;;;;11.27;58.95;100721.97;674563;29;115539;-65
2022/04/22 00:22:25;;;;;;;1017.53;950.80;;;;;;;11.28;58.90;100715.50;677053;29;46058;-65
2022/04/22 00:22:46;;;;;;;1016.03;949.53;;;;;;;11.27;58.46;100724.66;677877;29;20848;-65
2022/04/22 00:23:07;;;;;;;1018.58;951.92;;;;;;;11.26;58.79;100714.88;677502;29;23482;-65
2022/04/22 00:23:29;;;;;;;1016.85;950.20;;;;;;;11.27;58.67;100718.41;677682;29;22361;-65
2022/04/22 00:23:50;;;;;;;1019.38;952.72;;;;;;;11.26;58.90;100714.88;677272;29;46612;-65
2022/04/22 00:24:11;;;;;;;1015.78;949.17;;;;;;;11.25;58.61;100720.47;676678;29;44417;-65
2022/04/22 00:24:32;;;;;;;1011.70;945.28;;;;;;;11.26;58.74;100728.38;677311;29;22194;-65
2022/04/22 00:24:55;;;;;;;1016.08;949.60;;;;;;;11.26;58.70;100722.16;677839;29;23505;-65
2022/04/22 00:25:16;;;;;;;1021.17;954.47;;;;;;;11.26;58.48;100719.44;676784;29;46265;-65
2022/04/22 00:25:37;;;;;;;1023.67;956.80;;;;;;;11.24;58.95;100716.94;677941;29;21538;-65
2022/04/22 00:25:59;;;;;;;1021.38;954.58;;;;;;;11.26;59.34;100708.63;677697;29;22408;-65
2022/04/22 00:26:20;;;;;;;1027.03;959.90;;;;;;;11.27;58.50;100721.09;676597;29;44373;-65
2022/04/22 00:26:41;;;;;;;1016.22;949.65;;;;;;;11.27;58.64;100713.00;677158;29;44136;-65
2022/04/22 00:27:03;;;;;;;1012.60;946.20;;;;;;;11.28;58.89;100714.69;677513;29;23395;-65
2022/04/22 00:27:24;;;;;;;1012.67;946.25;;;;;;;11.28;58.88;100710.09;674203;29;22323;-65
2022/04/22 00:27:46;;;;;;;1016.92;950.42;;;;;;;11.28;58.73;100717.38;675336;29;22384;-65
2022/04/22 00:28:07;;;;;;;1010.85;944.55;;;;;;;11.28;58.51;100707.41;674109;29;45223;-65
2022/04/22 00:28:28;;;;;;;1012.85;946.45;;;;;;;11.26;59.08;100704.06;675109;29;21504;-65
2022/04/22 00:28:50;;;;;;;1011.35;945.05;;;;;;;11.26;58.39;100712.16;674179;29;44342;-65
2022/04/22 00:29:11;;;;;;;1010.22;943.85;;;;;;;11.26;58.56;100712.16;675117;29;21322;-65
2022/04/22 00:29:33;;;;;;;1014.33;947.58;;;;;;;11.26;58.71;100714.88;676696;29;45152;-65
2022/04/22 00:29:54;;;;;;;1018.00;951.05;;;;;;;11.25;58.46;100710.47;676650;29;46379;-65
2022/04/22 00:30:15;;;;;;;1019.13;952.45;;;;;;;11.25;58.47;100713.19;677638;29;22310;-65
2022/04/22 00:30:36;;;;;;;1011.70;945.28;;;;;;;11.24;58.51;100714.22;677749;29;21540;-65
2022/04/22 00:30:58;;;;;;;1007.13;941.03;;;;;;;11.24;58.41;100707.94;677728;29;22230;-65
2022/04/22 00:31:19;;;;;;;1017.20;950.63;;;;;;;11.23;58.82;100696.31;675897;29;47026;-65
2022/04/22 00:31:40;;;;;;;1016.42;949.85;;;;;;;11.24;58.78;100699.84;678539;29;22356;-65
2022/04/22 00:32:02;;;;;;;1019.58;952.90;;;;;;;11.22;58.35;100704.59;678304;29;23453;-65
2022/04/22 00:32:24;;;;;;;1016.60;949.95;;;;;;;11.20;58.30;100706.66;677391;29;45220;-65
2022/04/22 00:32:45;;;;;;;1020.97;954.20;;;;;;;11.21;58.43;100703.78;677322;29;46534;-65
2022/04/22 00:33:06;;;;;;;1028.57;961.47;;;;;;;11.20;58.55;100706.66;677629;29;22504;-65
2022/04/22 00:33:27;;;;;;;1020.10;953.22;;;;;;;11.19;58.52;100703.13;677554;29;22368;-65
2022/04/22 00:33:49;;;;;;;1011.33;944.83;;;;;;;11.17;58.69;100714.13;677892;29;21304;-65
2022/04/22 00:34:10;;;;;;;1013.30;946.75;;;;;;;11.17;58.52;100705.16;677024;29;46321;-65
2022/04/22 00:34:33;;;;;;;1011.03;944.55;;;;;;;11.17;58.44;100707.84;677725;29;22375;-65
2022/04/22 00:34:54;;;;;;;1013.30;946.83;;;;;;;11.18;58.42;100707.66;675969;29;69399;-65
2022/04/22 00:35:16;;;;;;;1024.57;957.65;;;;;;;11.18;58.63;100696.84;677325;29;21341;-65
2022/04/22 00:35:37;;;;;;;1009.08;942.72;;;;;;;11.16;58.62;100698.91;676915;29;46560;-65
2022/04/22 00:35:58;;;;;;;1001.92;935.92;;;;;;;11.14;58.44;100700.97;677315;29;22412;-65
2022/04/22 00:36:19;;;;;;;1005.05;938.85;;;;;;;11.13;58.53;100699.28;677030;29;23472;-65
2022/04/22 00:36:40;;;;;;;1012.20;945.75;;;;;;;11.10;58.38;100705.03;678247;29;22406;-65
2022/04/22 00:37:02;;;;;;;1012.05;945.70;;;;;;;11.07;58.62;100696.47;677850;29;23415;-65
2022/04/22 00:37:23;;;;;;;1015.80;949.10;;;;;;;11.05;58.44;100703.88;677086;29;70426;-65
2022/04/22 00:37:46;;;;;;;1012.35;945.92;;;;;;;11.04;58.29;100703.06;675677;29;23491;-65
2022/04/22 00:38:07;;;;;;;1012.90;946.42;;;;;;;11.02;58.42;100702.41;674371;29;46368;-65
2022/04/22 00:38:29;;;;;;;1014.25;947.65;;;;;;;11.00;58.39;100701.72;675700;29;44048;-65
2022/04/22 00:38:51;;;;;;;1018.92;952.20;;;;;;;10.97;58.66;100700.25;675552;29;46316;-65
2022/04/22 00:39:12;;;;;;;1016.47;949.90;;;;;;;10.98;58.63;100704.59;675394;29;22127;-65
2022/04/22 00:39:33;;;;;;;1017.13;950.38;;;;;;;10.97;58.96;100702.09;676141;29;22471;-65
2022/04/22 00:39:54;;;;;;;1011.22;944.67;;;;;;;11.00;58.54;100709.84;678273;29;23539;-65
2022/04/22 00:40:16;;;;;;;1009.92;943.58;;;;;;;11.03;59.01;100697.84;678149;29;22375;-65
2022/04/22 00:40:37;;;;;;;1009.22;942.92;;;;;;;11.04;58.98;100703.06;677989;29;44405;-65
2022/04/22 00:40:59;;;;;;;1014.65;947.95;;;;;;;11.03;58.79;100703.25;677645;29;46337;-65
2022/04/22 00:41:20;;;;;;;1023.70;956.55;;;;;;;11.02;58.53;100699.72;677486;28;21409;-65
2022/04/22 00:41:41;;;;;;;1026.55;959.35;;;;;;;11.00;58.70;100699.03;678744;29;22312;-65
2022/04/22 00:42:10;;;;;;;1002.88;936.85;;;;;;;11.00;58.30;100697.19;675460;29;22404;-65
2022/04/22 00:42:31;;;;;;;1069.28;999.50;;;;;;;11.05;58.65;100699.34;671646;29;137797;-65
2022/04/22 00:42:53;;;;;;;1019.40;952.63;;;;;;;11.06;58.56;100690.19;675389;29;22386;-65
2022/04/22 00:43:18;;;;;;;1008.30;941.95;;;;;;;11.06;58.15;100697.47;673811;29;23737;-65
2022/04/22 00:43:42;;;;;;;1003.53;937.50;;;;;;;11.03;58.21;100695.97;669668;29;114931;-65
2022/04/22 00:44:04;;;;;;;1013.63;947.22;;;;;;;11.02;58.37;100697.00;670502;29;92212;-65
2022/04/22 00:44:25;;;;;;;1009.13;942.83;;;;;;;10.99;58.38;100698.19;672506;29;46449;-65
2022/04/22 00:44:46;;;;;;;1015.65;949.10;;;;;;;10.99;58.25;100697.38;673238;29;23122;-65
2022/04/22 00:45:12;;;;;;;1018.33;951.63;;;;;;;10.97;58.11;100693.97;671865;29;60941;-65
2022/04/22 00:45:33;;;;;;;1020.35;953.47;;;;;;;10.96;58.35;100693.16;672172;29;43962;-65
2022/04/22 00:45:55;;;;;;;1019.38;952.60;;;;;;;10.94;58.43;100697.03;672406;29;22410;-65
2022/04/22 00:46:16;;;;;;;1018.20;951.45;;;;;;;10.93;58.20;100698.91;672375;29;22381;-65
2022/04/22 00:46:38;;;;;;;1018.42;951.63;;;;;;;10.91;58.42;100692.84;673092;29;44089;-65
2022/04/22 00:46:59;;;;;;;1019.53;952.83;;;;;;;10.90;58.18;100693.03;672265;29;46586;-65
2022/04/22 00:47:20;;;;;;;1009.00;942.65;;;;;;;10.89;58.45;100688.66;673299;29;13368;-65
2022/04/22 00:47:41;;;;;;;1008.28;941.97;;;;;;;10.89;58.68;100691.34;673313;29;23425;-65
2022/04/22 00:48:04;;;;;;;1017.47;950.80;;;;;;;10.89;58.43;100691.34;672638;29;22409;-65
2022/04/22 00:48:25;;;;;;;1015.63;948.92;;;;;;;10.90;58.43;100691.16;671551;29;68510;-65
2022/04/22 00:48:46;;;;;;;1019.33;952.63;;;;;;;10.90;58.46;100695.75;673062;29;22389;-65
2022/04/22 00:49:07;;;;;;;1023.90;957.15;;;;;;;10.88;58.63;100692.34;673054;29;21325;-65
2022/04/22 00:49:29;;;;;;;1021.85;955.03;;;;;;;10.87;58.13;100701.50;672704;29;22395;-65
2022/04/22 00:49:52;;;;;;;1021.97;954.97;;;;;;;10.84;58.11;100700.00;672066;29;46325;-65
2022/04/22 00:50:13;;;;;;;1017.53;950.80;;;;;;;10.82;58.34;100692.06;671042;29;68264;-65
2022/04/22 00:50:34;;;;;;;1025.57;958.58;;;;;;;10.82;58.17;100697.47;672988;29;22372;-65
2022/04/22 00:50:56;;;;;;;1034.40;967.00;;;;;;;10.80;58.47;100694.13;673117;29;21586;-65
2022/04/22 00:51:21;;;;;;;1042.35;974.70;;;;;;;10.78;58.48;100693.47;671781;29;45421;-65
2022/04/22 00:51:42;;;;;;;1023.38;956.50;;;;;;;10.76;58.33;100698.19;669856;29;115960;-65
2022/04/22 00:52:05;;;;;;;1019.03;952.28;;;;;;;10.75;58.64;100692.97;673006;29;22389;-65
2022/04/22 00:52:27;;;;;;;1011.33;944.83;;;;;;;10.74;58.47;100685.91;673917;29;70067;-65
2022/04/22 00:52:52;;;;;;;1019.35;952.55;;;;;;;10.72;58.36;100694.19;674993;29;44214;-65
2022/04/22 00:53:14;;;;;;;1024.97;957.92;;;;;;;10.73;58.64;100695.84;672471;29;115186;-65
2022/04/22 00:53:36;;;;;;;1008.47;942.22;;;;;;;10.75;58.73;100695.66;674817;29;46446;-65
2022/04/22 00:53:57;;;;;;;1007.42;941.22;;;;;;;10.72;58.45;100696.88;674573;29;47092;-65
2022/04/22 00:54:21;;;;;;;1017.38;950.78;;;;;;;10.72;58.39;100696.03;673268;29;44076;-65
2022/04/22 00:54:42;;;;;;;1019.88;953.20;;;;;;;10.72;58.52;100696.03;670941;29;69472;-65
2022/04/22 00:55:04;;;;;;;1011.47;945.08;;;;;;;10.70;58.29;100689.97;672657;29;22393;-65
2022/04/22 00:55:25;;;;;;;1016.15;949.55;;;;;;;10.69;58.36;100694.53;671915;29;44285;-65
2022/04/22 00:55:48;;;;;;;1020.70;953.93;;;;;;;10.68;58.61;100690.16;673020;29;22499;-65
2022/04/22 00:56:11;;;;;;;1009.33;942.70;;;;;;;10.68;58.68;100694.72;670374;29;70520;-65
2022/04/22 00:56:32;;;;;;;1018.28;951.20;;;;;;;10.65;58.41;100698.59;670263;29;69241;-65
2022/04/22 00:56:53;;;;;;;1017.97;951.25;;;;;;;10.66;58.76;100694.03;673186;29;21478;-65
2022/04/22 00:57:16;;;;;;;1012.88;946.33;;;;;;;10.64;58.76;100691.50;672780;29;23445;-65
2022/04/22 00:57:37;;;;;;;1013.88;947.30;;;;;;;10.61;58.66;100692.72;671890;29;67475;-65
2022/04/22 00:57:59;;;;;;;1017.22;950.60;;;;;;;10.58;58.48;100687.69;672939;29;21553;-65
2022/04/22 00:58:21;;;;;;;1015.08;948.47;;;;;;;10.56;58.51;100689.69;672006;29;46519;-65
2022/04/22 00:58:43;;;;;;;1014.25;947.75;;;;;;;10.58;58.83;100692.22;672624;29;45248;-65
2022/04/22 00:59:05;;;;;;;1013.15;946.55;;;;;;;10.61;58.63;100697.25;671463;29;67457;-65
2022/04/22 00:59:29;;;;;;;1017.65;950.97;;;;;;;10.58;58.93;100703.88;673202;29;23626;-65
2022/04/22 00:59:52;;;;;;;1023.42;956.28;;;;;;;10.56;58.58;100697.81;670403;29;93009;-65
2022/04/22 01:00:14;;;;;;;1022.67;955.63;;;;;;;10.56;58.56;100696.97;671177;29;67345;-65
2022/04/22 01:00:35;;;;;;;1026.15;958.95;;;;;;;10.54;58.56;100694.44;672096;29;44395;-65
2022/04/22 01:00:56;;;;;;;1018.33;951.58;;;;;;;10.53;58.60;100695.50;673472;29;21537;-65
2022/04/22 01:01:19;;;;;;;1018.65;951.85;;;;;;;10.54;58.88;100690.91;672829;29;5202;-65
2022/04/22 01:01:40;;;;;;;1018.65;951.83;;;;;;;10.55;58.54;100698.84;672314;29;44495;-65
2022/04/22 01:02:01;;;;;;;1012.22;945.75;;;;;;;10.53;58.94;100695.50;672832;29;22478;-65
2022/04/22 01:02:22;;;;;;;1008.70;942.20;;;;;;;10.56;58.76;100700.50;673918;29;1537;-65
2022/04/22 01:02:43;;;;;;;1013.88;947.38;;;;;;;10.56;58.96;100703.19;673214;29;22377;-65
2022/04/22 01:03:06;;;;;;;1013.10;946.58;;;;;;;10.57;58.99;100695.97;672820;29;21558;-65
2022/04/22 01:03:28;;;;;;;1009.58;943.03;;;;;;;10.55;58.91;100701.53;672810;29;27555;-65
2022/04/22 01:09:48;;;;;;;1012.35;945.55;;;;;;;10.51;58.67;100693.97;668795;29;137494;-65
2022/04/22 01:10:09;;;;;;;1012.92;946.33;;;;;;;10.50;58.64;100695.84;672185;29;46345;-65
2022/04/22 01:10:30;;;;;;;1013.85;947.25;;;;;;;10.50;58.42;100701.25;672865;29;22385;-65
2022/04/22 01:10:53;;;;;;;1021.45;954.55;;;;;;;10.51;58.47;100697.50;672999;29;23488;-65
2022/04/22 01:11:14;;;;;;;1021.00;954.15;;;;;;;10.50;58.42;100695.84;671230;29;46347;-65
2022/04/22 01:11:36;;;;;;;1021.88;955.03;;;;;;;10.51;58.61;100693.97;672057;29;46041;-65
2022/04/22 01:11:57;;;;;;;1016.90;950.20;;;;;;;10.49;58.40;100696.84;672332;29;45260;-65
2022/04/22 01:12:19;;;;;;;1015.17;948.58;;;;;;;10.48;58.41;100695.16;673046;29;22162;-65
2022/04/22 01:12:41;;;;;;;1022.88;955.95;;;;;;;10.47;58.48;100693.50;672718;29;21547;-65
2022/04/22 01:13:02;;;;;;;1012.55;946.00;;;;;;;10.45;58.54;100690.09;671114;29;69449;-65
2022/04/22 01:13:23;;;;;;;1012.63;946.08;;;;;;;10.44;58.59;100689.28;672936;29;23447;-65
2022/04/22 01:13:45;;;;;;;1008.38;941.97;;;;;;;10.44;58.37;100697.38;673175;29;22393;-65
2022/04/22 01:14:08;;;;;;;1017.58;950.90;;;;;;;10.45;58.54;100690.09;672195;29;47506;-65
2022/04/22 01:14:30;;;;;;;1017.08;950.45;;;;;;;10.44;58.32;100688.44;671159;29;70186;-65
2022/04/22 01:14:52;;;;;;;1017.03;950.40;;;;;;;10.43;58.60;100695.69;672567;29;46364;-65
2022/04/22 01:15:13;;;;;;;1014.17;947.58;;;;;;;10.41;58.49;100686.94;671939;29;44382;-65
2022/04/22 01:15:35;;;;;;;1011.88;945.35;;;;;;;10.43;58.88;100681.34;672971;29;22284;-65
2022/04/22 01:15:56;;;;;;;1016.22;949.63;;;;;;;10.43;58.93;100684.06;671725;29;46377;-65
2022/04/22 01:16:17;;;;;;;1020.50;953.70;;;;;;;10.42;58.46;100687.75;672026;29;22479;-65
2022/04/22 01:16:38;;;;;;;1009.53;943.20;;;;;;;10.40;58.58;100684.41;672401;29;22212;-65
2022/04/22 01:17:00;;;;;;;1014.80;948.40;;;;;;;10.39;58.54;100688.97;673200;29;21519;-65
2022/04/22 01:17:22;;;;;;;1019.35;952.60;;;;;;;10.39;58.43;100694.38;672442;29;45296;-65
2022/04/22 01:17:44;;;;;;;1017.97;951.33;;;;;;;10.38;58.87;100687.28;672001;29;45253;-65
2022/04/22 01:18:06;;;;;;;1018.28;951.63;;;;;;;10.37;59.08;100693.69;672823;29;23505;-65
2022/04/22 01:18:27;;;;;;;1021.58;954.75;;;;;;;10.36;58.60;100689.34;672763;29;17953;-65
2022/04/22 01:18:49;;;;;;;1015.55;948.97;;;;;;;10.36;58.49;100696.56;672630;29;22466;-65
2022/04/22 01:19:10;;;;;;;1018.92;952.17;;;;;;;10.35;58.71;100694.91;671772;29;47165;-65
2022/04/22 01:19:31;;;;;;;1022.80;955.78;;;;;;;10.33;58.62;100686.97;672364;29;23474;-65
2022/04/22 01:19:53;;;;;;;1020.75;953.90;;;;;;;10.34;58.82;100685.13;671771;29;45152;-65
2022/04/22 01:20:17;;;;;;;1029.00;961.80;;;;;;;10.34;58.99;100691.34;672078;29;45149;-65
2022/04/22 01:20:38;;;;;;;1036.43;968.92;;;;;;;10.34;58.88;100685.13;671692;29;69384;-65
2022/04/22 01:21:01;;;;;;;1020.25;953.47;;;;;;;10.33;59.04;100694.22;673072;29;24341;-65
2022/04/22 01:21:22;;;;;;;1016.92;950.15;;;;;;;10.29;59.03;100686.44;672064;29;18228;-65
2022/04/22 01:21:43;;;;;;;1011.08;944.53;;;;;;;10.30;58.82;100687.31;673305;29;23488;-65
2022/04/22 01:22:06;;;;;;;1020.80;953.97;;;;;;;10.31;58.88;100691.66;672693;29;22317;-65
2022/04/22 01:22:27;;;;;;;1022.13;955.22;;;;;;;10.30;58.85;100684.59;672602;29;32264;-65
2022/04/22 01:22:48;;;;;;;1018.65;951.83;;;;;;;10.29;58.98;100693.72;672003;29;46588;-65
2022/04/22 01:23:11;;;;;;;1023.45;956.45;;;;;;;10.28;59.05;100689.31;672882;29;23429;-65
2022/04/22 01:23:34;;;;;;;1021.53;954.58;;;;;;;10.28;59.17;100690.19;672285;29;46547;-65
2022/04/22 01:23:55;;;;;;;1018.88;952.08;;;;;;;10.28;59.21;100690.19;671600;29;69429;-65
2022/04/22 01:24:16;;;;;;;1020.05;953.10;;;;;;;10.28;58.93;100692.03;671787;29;46397;-65
2022/04/22 01:24:38;;;;;;;1031.78;964.35;;;;;;;10.27;58.85;100685.78;673233;29;22637;-65
2022/04/22 01:25:01;;;;;;;1016.67;949.83;;;;;;;10.27;58.91;100693.06;672099;29;45243;-65
2022/04/22 01:25:22;;;;;;;1014.97;948.25;;;;;;;10.26;59.08;100686.78;671352;29;70631;-65
2022/04/22 01:25:43;;;;;;;1012.72;946.15;;;;;;;10.24;58.95;100691.53;672919;29;23398;-65
2022/04/22 01:26:06;;;;;;;1017.70;951.03;;;;;;;10.25;58.77;100687.84;673037;29;21513;-65
2022/04/22 01:26:27;;;;;;;1017.15;950.30;;;;;;;10.24;59.11;100688.84;671123;29;46275;-65
2022/04/22 01:26:49;;;;;;;1017.53;950.83;;;;;;;10.25;59.03;100689.66;673111;29;21713;-65
2022/04/22 01:27:10;;;;;;;1017.15;950.47;;;;;;;10.24;58.85;100683.44;670887;29;67437;-65
2022/04/22 01:27:33;;;;;;;1006.50;940.15;;;;;;;10.24;58.84;100679.91;673164;29;22805;-65
2022/04/22 01:27:54;;;;;;;1005.80;939.65;;;;;;;10.24;58.87;100686.13;671088;29;70974;-65
2022/04/22 01:28:15;;;;;;;1003.85;937.78;;;;;;;10.25;58.89;100689.66;672687;29;23500;-65
2022/04/22 01:28:36;;;;;;;1017.22;950.58;;;;;;;10.23;58.84;100683.63;673248;29;22395;-65
2022/04/22 01:28:58;;;;;;;1020.55;953.83;;;;;;;10.22;58.96;100682.78;672954;29;23495;-65
2022/04/22 01:29:20;;;;;;;1020.47;953.58;;;;;;;10.22;58.83;100677.38;672035;29;44374;-65
2022/04/22 01:29:41;;;;;;;1015.90;948.95;;;;;;;10.21;58.63;100685.66;671327;29;46374;-65
2022/04/22 01:30:06;;;;;;;1021.35;954.30;;;;;;;10.23;59.15;100678.22;672877;29;22484;-65
2022/04/22 01:30:27;;;;;;;1024.40;957.42;;;;;;;10.24;58.89;100690.72;669883;29;114968;-65
2022/04/22 01:30:49;;;;;;;1012.65;946.17;;;;;;;10.23;59.12;100686.31;672970;29;21496;-65
2022/04/22 01:31:10;;;;;;;1010.78;944.40;;;;;;;10.21;58.90;100681.09;672320;29;46089;-65
2022/04/22 01:31:31;;;;;;;1017.28;950.55;;;;;;;10.21;58.84;100686.50;672160;29;22412;-65
2022/04/22 01:31:52;;;;;;;1022.88;955.95;;;;;;;10.20;59.00;100687.53;672480;29;23452;-65
2022/04/22 01:32:14;;;;;;;1017.35;950.58;;;;;;;10.21;59.10;100685.66;672763;29;23435;-65
2022/04/22 01:32:35;;;;;;;1018.92;952.15;;;;;;;10.20;58.97;100683.97;672044;29;46320;-65
2022/04/22 01:32:56;;;;;;;1013.83;947.25;;;;;;;10.20;59.15;100681.28;672839;29;22406;-65
2022/04/22 01:33:18;;;;;;;1007.45;941.15;;;;;;;10.22;58.85;100687.31;672844;29;23502;-65
2022/04/22 01:33:39;;;;;;;1000.80;934.70;;;;;;;10.21;58.82;100688.34;672259;29;46320;-65
2022/04/22 01:34:01;;;;;;;1017.75;951.08;;;;;;;10.21;59.11;100685.66;671880;29;44307;-65
2022/04/22 01:34:22;;;;;;;1009.40;943.00;;;;;;;10.22;59.09;100679.22;673813;29;1589;-65
2022/04/22 01:34:43;;;;;;;1009.67;943.25;;;;;;;10.22;58.79;100676.53;672893;29;24127;-65
2022/04/22 01:35:05;;;;;;;1017.15;950.45;;;;;;;10.21;58.84;100686.50;672887;29;22177;-65
2022/04/22 01:35:26;;;;;;;1018.60;951.90;;;;;;;10.20;59.02;100679.44;671559;29;69232;-65
2022/04/22 01:35:47;;;;;;;1009.25;942.92;;;;;;;10.18;58.67;100669.81;672893;29;21535;-65
2022/04/22 01:36:10;;;;;;;1012.50;946.05;;;;;;;10.23;58.77;100683.63;672473;29;22453;-65
2022/04/22 01:36:31;;;;;;;1014.67;948.08;;;;;;;10.22;59.05;100680.09;671571;29;47175;-65
2022/04/22 01:36:53;;;;;;;1008.15;941.85;;;;;;;10.20;58.92;100676.72;672761;29;22391;-65
2022/04/22 01:37:14;;;;;;;1014.95;948.35;;;;;;;10.18;58.76;100678.75;671964;29;46273;-65
2022/04/22 01:37:37;;;;;;;1016.58;949.90;;;;;;;10.20;58.33;100675.88;672823;29;21191;-65
2022/04/22 01:37:58;;;;;;;1022.10;955.20;;;;;;;10.16;58.62;100675.38;671123;29;70182;-65
2022/04/22 01:38:19;;;;;;;1015.40;948.78;;;;;;;10.17;58.62;100676.22;672783;29;23303;-65
2022/04/22 01:38:41;;;;;;;1022.05;955.15;;;;;;;10.14;58.71;100677.44;672562;29;21897;-65
2022/04/22 01:39:02;;;;;;;1007.17;940.97;;;;;;;10.14;58.35;100677.44;671979;29;46309;-65
2022/04/22 01:39:24;;;;;;;1013.15;946.78;;;;;;;10.13;58.61;100678.44;671869;29;46276;-65
2022/04/22 01:39:45;;;;;;;1013.13;946.72;;;;;;;10.10;58.91;100679.63;672515;29;21542;-65
2022/04/22 01:40:07;;;;;;;1010.40;944.10;;;;;;;10.08;58.69;100680.84;672921;29;23117;-65
2022/04/22 01:40:29;;;;;;;1013.47;946.90;;;;;;;10.06;58.92;100685.53;671149;29;69248;-65
2022/04/22 01:40:50;;;;;;;1023.10;956.25;;;;;;;10.04;59.23;100682.19;672987;29;22392;-65
2022/04/22 01:41:11;;;;;;;1008.58;942.25;;;;;;;10.03;59.22;100680.50;672033;29;44360;-65
2022/04/22 01:41:33;;;;;;;1016.83;950.10;;;;;;;10.00;59.17;100673.59;673338;29;5658;-65
2022/04/22 01:41:55;;;;;;;1006.00;939.72;;;;;;;10.00;59.31;100672.75;676033;29;21480;-65
2022/04/22 01:42:18;;;;;;;1016.67;949.90;;;;;;;10.02;59.52;100676.13;677295;29;46364;-65
2022/04/22 01:42:39;;;;;;;1017.08;950.42;;;;;;;10.04;59.11;100672.22;676044;29;85854;-65
2022/04/22 01:43:01;;;;;;;1015.28;948.60;;;;;;;10.04;59.21;100674.94;675896;29;21500;-65